Time;durP1;ratioP1;P1;durP2;ratioP2;P2;SDS_P1;SDS_P2;PMS_P1;PMS_P2;Temp;Humidity;BMP_temperature;BMP_pressure;BME280_temperature;BME280_humidity;BME280_pressure;Samples;Min_cycle;Max_cycle;Signal;HPM_P1;HPM_P2
2022/06/02 00:00:19;;;;;;;9.95;4.70;;;17.20;99.90;;;;;;4175014;28;20708;-64
2022/06/02 00:02:41;;;;;;;7.15;4.90;;;17.20;99.90;;;;;;4176584;28;20090;-62
2022/06/02 00:04:50;;;;;;;11.00;5.40;;;17.10;99.90;;;;;;4170530;28;20075;-62
2022/06/02 00:07:12;;;;;;;8.82;4.80;;;17.10;99.90;;;;;;4170965;28;20079;-63
2022/06/02 00:09:26;;;;;;;7.10;5.35;;;17.00;99.90;;;;;;4176099;28;20078;-62
2022/06/02 00:11:33;;;;;;;11.02;4.90;;;17.00;99.90;;;;;;4177911;28;20040;-65
2022/06/02 00:13:53;;;;;;;6.40;4.03;;;17.10;99.90;;;;;;4159146;28;20025;-63
2022/06/02 00:16:04;;;;;;;7.30;4.43;;;17.10;99.90;;;;;;4158314;28;20033;-63
2022/06/02 00:18:14;;;;;;;6.55;4.65;;;17.00;99.90;;;;;;4175194;28;20029;-63
2022/06/02 00:20:24;;;;;;;12.30;5.15;;;17.00;99.90;;;;;;4173553;28;20095;-63
2022/06/02 00:22:33;;;;;;;12.10;4.28;;;17.00;99.90;;;;;;4175444;28;20017;-62
2022/06/02 00:24:44;;;;;;;5.47;4.45;;;17.00;99.90;;;;;;4187040;28;20070;-63
2022/06/02 00:27:09;;;;;;;8.07;5.25;;;17.00;99.90;;;;;;4176424;28;20495;-62
2022/06/02 00:29:23;;;;;;;9.70;4.90;;;16.90;99.90;;;;;;4154652;28;20099;-63
2022/06/02 00:31:51;;;;;;;7.70;4.78;;;16.90;99.90;;;;;;4158269;28;20080;-63
2022/06/02 00:33:59;;;;;;;9.15;4.45;;;16.90;99.90;;;;;;4158028;28;20650;-63
2022/06/02 00:36:28;;;;;;;7.25;4.80;;;16.80;99.90;;;;;;4159805;28;21005;-63
2022/06/02 00:38:35;;;;;;;9.18;4.40;;;16.80;99.90;;;;;;4157882;28;20547;-64
2022/06/02 00:40:37;;;;;;;8.82;5.53;;;16.80;99.90;;;;;;4169898;28;20021;-63
2022/06/02 00:42:40;;;;;;;10.93;5.18;;;16.80;99.90;;;;;;4190050;28;20028;-64
2022/06/02 00:44:58;;;;;;;6.10;4.60;;;16.80;99.90;;;;;;4189826;28;20654;-63
2022/06/02 00:47:26;;;;;;;7.95;4.97;;;16.80;99.90;;;;;;4174523;28;20449;-61
2022/06/02 00:49:58;;;;;;;9.55;4.95;;;16.80;99.90;;;;;;4173997;28;20021;-63
2022/06/02 00:52:11;;;;;;;8.48;4.72;;;16.80;99.90;;;;;;4174966;28;20029;-63
2022/06/02 00:57:31;;;;;;;6.72;5.35;;;16.80;99.90;;;;;;4161417;28;20100;-63
2022/06/02 00:59:48;;;;;;;11.45;5.30;;;16.80;99.90;;;;;;4164361;28;20095;-63
2022/06/02 01:01:49;;;;;;;7.68;4.93;;;16.80;99.90;;;;;;4174890;28;20041;-63
2022/06/02 01:03:54;;;;;;;5.82;4.60;;;16.70;99.90;;;;;;4173675;28;20037;-63
2022/06/02 01:06:07;;;;;;;16.02;5.47;;;16.80;99.90;;;;;;4174384;28;20053;-64
2022/06/02 01:08:53;;;;;;;7.80;4.88;;;16.70;99.90;;;;;;4174228;28;20049;-61
2022/06/02 01:11:03;;;;;;;7.20;5.50;;;16.70;99.90;;;;;;4174323;28;20554;-62
2022/06/02 01:13:25;;;;;;;11.95;5.18;;;16.70;99.90;;;;;;4174406;28;20086;-64
2022/06/02 01:15:38;;;;;;;5.18;4.60;;;16.60;99.90;;;;;;4173758;28;20021;-64
2022/06/02 01:17:54;;;;;;;8.60;4.82;;;16.60;99.90;;;;;;4174349;28;20518;-62
2022/06/02 01:20:07;;;;;;;6.45;5.05;;;16.60;99.90;;;;;;4173837;28;20045;-62
2022/06/02 01:22:20;;;;;;;7.80;5.00;;;16.50;99.90;;;;;;4172513;28;20083;-63
2022/06/02 01:24:44;;;;;;;9.80;5.00;;;16.50;99.90;;;;;;4172453;28;20063;-63
2022/06/02 01:26:56;;;;;;;6.82;4.60;;;16.50;99.90;;;;;;4174193;28;20090;-62
2022/06/02 01:29:44;;;;;;;9.93;4.57;;;16.40;99.90;;;;;;4173436;28;20785;-62
2022/06/02 01:32:14;;;;;;;7.20;5.22;;;16.40;99.90;;;;;;4174248;28;20428;-64
2022/06/02 01:34:43;;;;;;;8.90;5.25;;;16.40;99.90;;;;;;4174045;28;20455;-63
2022/06/02 01:37:02;;;;;;;6.45;5.45;;;16.30;99.90;;;;;;4173857;28;20033;-64
2022/06/02 01:39:20;;;;;;;10.18;5.65;;;16.30;99.90;;;;;;4173718;28;20083;-63
2022/06/02 01:41:53;;;;;;;7.78;5.60;;;16.30;99.90;;;;;;4173698;28;20094;-63
2022/06/02 01:44:22;;;;;;;8.90;4.75;;;16.20;99.90;;;;;;4173948;28;20469;-62
2022/06/02 01:46:54;;;;;;;10.65;5.13;;;16.20;99.90;;;;;;4173328;28;20102;-63
2022/06/02 01:49:10;;;;;;;7.78;4.78;;;16.10;99.90;;;;;;4173432;28;20049;-63
2022/06/02 01:51:26;;;;;;;8.20;5.32;;;16.10;99.90;;;;;;4173132;28;20056;-65
2022/06/02 01:54:04;;;;;;;9.70;5.15;;;16.00;99.90;;;;;;4157275;28;20029;-62
2022/06/02 01:56:30;;;;;;;5.65;5.05;;;16.00;99.90;;;;;;4157002;28;20037;-63
2022/06/02 01:59:09;;;;;;;9.98;5.45;;;15.90;99.90;;;;;;4156917;28;20025;-63
2022/06/02 02:01:29;;;;;;;6.95;5.15;;;15.90;99.90;;;;;;4168283;28;20640;-63
2022/06/02 02:04:03;;;;;;;11.43;5.07;;;15.90;99.90;;;;;;4189294;28;20036;-64
2022/06/02 02:06:26;;;;;;;16.50;5.55;;;15.90;99.90;;;;;;4189948;28;20381;-62
2022/06/02 02:08:54;;;;;;;10.05;5.32;;;15.90;99.90;;;;;;4179361;28;20024;-64
2022/06/02 02:11:41;;;;;;;11.90;5.32;;;15.80;99.90;;;;;;4173502;28;20033;-63
2022/06/02 02:14:11;;;;;;;8.95;5.22;;;15.80;99.90;;;;;;4168607;28;20436;-63
2022/06/02 02:16:40;;;;;;;6.53;5.13;;;15.80;99.90;;;;;;4168137;28;20550;-65
2022/06/02 02:18:53;;;;;;;8.30;5.03;;;15.80;99.90;;;;;;4173345;28;20091;-62
2022/06/02 02:21:00;;;;;;;9.90;4.90;;;15.70;99.90;;;;;;4182893;28;20024;-63
2022/06/02 02:23:05;;;;;;;7.63;5.03;;;15.70;99.90;;;;;;4174037;28;20366;-63
2022/06/02 02:25:15;;;;;;;5.47;4.55;;;15.80;99.90;;;;;;4172636;28;20032;-64
2022/06/02 02:27:16;;;;;;;15.05;5.38;;;15.80;99.90;;;;;;4156453;28;20084;-64
2022/06/02 02:29:42;;;;;;;9.05;5.43;;;15.80;99.90;;;;;;4156275;28;20025;-63
2022/06/02 02:32:10;;;;;;;10.75;5.72;;;15.80;99.90;;;;;;4156572;28;20076;-62
2022/06/02 02:34:29;;;;;;;9.95;5.00;;;15.80;99.90;;;;;;4155960;28;20021;-62
2022/06/02 02:36:44;;;;;;;9.10;5.70;;;15.80;99.90;;;;;;4156633;28;20359;-64
2022/06/02 02:38:59;;;;;;;6.78;5.63;;;15.80;99.90;;;;;;4167356;28;20029;-63
2022/06/02 02:41:10;;;;;;;11.45;6.18;;;15.80;99.90;;;;;;4172943;28;20052;-62
2022/06/02 02:43:26;;;;;;;11.00;5.38;;;15.80;99.90;;;;;;4172193;28;20484;-63
2022/06/02 02:45:53;;;;;;;7.70;5.07;;;15.70;99.90;;;;;;4172800;28;20090;-62
2022/06/02 02:48:12;;;;;;;7.45;5.00;;;15.60;99.90;;;;;;4172722;28;20033;-62
2022/06/02 02:50:33;;;;;;;8.70;5.03;;;15.60;99.90;;;;;;4172290;28;20033;-63
2022/06/02 02:52:52;;;;;;;8.90;4.55;;;15.60;99.90;;;;;;4172513;28;20036;-63
2022/06/02 02:55:32;;;;;;;6.93;4.35;;;15.60;99.90;;;;;;4172501;28;20571;-62
2022/06/02 02:57:36;;;;;;;8.35;5.00;;;15.70;99.90;;;;;;4170676;28;20110;-63
2022/06/02 03:00:00;;;;;;;6.32;5.18;;;15.80;99.90;;;;;;4172396;28;20044;-62
2022/06/02 03:02:36;;;;;;;11.02;4.63;;;15.80;99.90;;;;;;4172870;28;20111;-63
2022/06/02 03:04:50;;;;;;;11.05;6.00;;;15.90;99.90;;;;;;4172224;28;20099;-63
2022/06/02 03:06:54;;;;;;;10.93;5.45;;;16.00;99.90;;;;;;4172787;28;20090;-63
2022/06/02 03:09:05;;;;;;;8.95;5.75;;;16.20;99.90;;;;;;4171667;28;20802;-63
2022/06/02 03:11:23;;;;;;;13.27;5.70;;;16.50;99.90;;;;;;4172943;28;20025;-63
2022/06/02 03:13:38;;;;;;;7.85;5.15;;;16.90;99.90;;;;;;4171717;28;20097;-63
2022/06/02 03:16:00;;;;;;;9.40;5.57;;;17.10;99.90;;;;;;4172357;28;20118;-64
2022/06/02 03:18:36;;;;;;;9.25;6.15;;;17.20;99.90;;;;;;4172002;28;20432;-64
2022/06/02 03:20:43;;;;;;;17.75;6.07;;;17.40;99.90;;;;;;4177794;28;20093;-64
2022/06/02 03:23:11;;;;;;;10.95;5.63;;;17.70;99.90;;;;;;4188909;28;20423;-62
2022/06/02 03:25:31;;;;;;;15.80;5.45;;;18.10;99.90;;;;;;4188772;28;20089;-61
2022/06/02 03:27:49;;;;;;;16.55;5.43;;;18.50;99.90;;;;;;4188407;28;20722;-63
2022/06/02 03:30:10;;;;;;;6.55;4.85;;;18.90;99.90;;;;;;4179244;28;20032;-62
2022/06/02 03:32:24;;;;;;;13.25;5.10;;;19.30;99.90;;;;;;4163539;28;20122;-65
2022/06/02 03:34:43;;;;;;;12.02;4.75;;;19.70;99.90;;;;;;4171641;28;20036;-63
2022/06/02 03:37:05;;;;;;;12.00;5.22;;;20.00;99.90;;;;;;4188847;28;20137;-63
2022/06/02 03:39:10;;;;;;;9.80;5.65;;;20.40;99.90;;;;;;4186025;28;20032;-62
2022/06/02 03:41:11;;;;;;;5.63;4.20;;;20.80;99.90;;;;;;4183590;28;20029;-65
2022/06/02 03:43:40;;;;;;;8.45;4.13;;;21.10;99.90;;;;;;4182485;28;20037;-64
2022/06/02 03:45:59;;;;;;;8.85;3.90;;;21.40;99.90;;;;;;4172447;28;20040;-63
2022/06/02 03:48:28;;;;;;;7.10;4.20;;;21.80;99.90;;;;;;4174264;28;20033;-63
2022/06/02 03:50:32;;;;;;;11.00;3.65;;;22.10;99.90;;;;;;4175288;28;20078;-63
2022/06/02 03:53:10;;;;;;;9.60;4.03;;;22.40;99.90;;;;;;4175315;28;20925;-64
2022/06/02 03:55:11;;;;;;;9.13;3.72;;;;;;;;;;4175886;28;21060;-63
2022/06/02 03:59:34;;;;;;;7.05;3.15;;;;;;;;;;4300210;22;20721;-63
2022/06/02 04:01:37;;;;;;;9.63;3.70;;;;;;;;;;4178180;28;20098;-63
2022/06/02 04:03:45;;;;;;;8.00;3.78;;;;;;;;;;4176820;28;20029;-63
2022/06/02 04:05:49;;;;;;;6.05;4.07;;;;;;;;;;4175374;28;20053;-63
2022/06/02 04:08:08;;;;;;;6.07;4.22;;;;;;;;;;4177274;28;20040;-63
2022/06/02 04:10:19;;;;;;;8.73;3.00;;;;;;;;;;4175177;28;20859;-64
2022/06/02 04:14:55;;;;;;;9.80;3.10;;;;;;;;;;4175792;28;20036;-64
2022/06/02 04:17:10;;;;;;;5.57;3.15;;;;;;;;;;4184840;28;20040;-61
2022/06/02 04:21:48;;;;;;;4.10;2.65;;;;;;;;;;4192944;28;20033;-63
2022/06/02 04:23:59;;;;;;;6.20;2.90;;;;;;;;;;4179342;28;20075;-62
2022/06/02 04:26:06;;;;;;;8.55;3.65;;;;;;;;;;4187156;28;20048;-61
2022/06/02 04:28:31;;;;;;;3.92;2.70;;;;;;;;;;4187437;28;20113;-60
2022/06/02 04:30:51;;;;;;;7.38;3.05;;;;;;;;;;4168255;28;20098;-63
2022/06/02 04:33:13;;;;;;;6.15;3.03;;;;;;;;;;4191002;28;20040;-63
2022/06/02 04:35:24;;;;;;;7.60;2.67;;;;;;;;;;4190330;28;20098;-62
2022/06/02 04:37:25;;;;;;;6.30;2.70;;;;;;;;;;4190965;28;20105;-62
2022/06/02 04:39:44;;;;;;;4.93;2.90;;;;;;;;;;4186554;28;20025;-63
2022/06/02 04:41:54;;;;;;;4.70;2.70;;;;;;;;;;4176557;28;20090;-61
2022/06/02 04:44:20;;;;;;;6.45;2.90;;;;;;;;;;4181595;28;20082;-64
2022/06/02 04:46:30;;;;;;;5.32;2.72;;;;;;;;;;4192862;28;20094;-64
2022/06/02 04:48:32;;;;;;;7.70;2.55;;;;;;;;;;4177113;28;20067;-62
2022/06/02 04:50:52;;;;;;;8.57;3.20;;;;;;;;;;4175626;28;20029;-63
2022/06/02 04:52:56;;;;;;;13.68;4.80;;;;;;;;;;4174457;28;20451;-63
2022/06/02 04:55:07;;;;;;;18.58;4.82;;;;;;;;;;4175786;28;20543;-63
2022/06/02 04:57:17;;;;;;;16.13;5.15;;;;;;;;;;4174436;28;20099;-62
2022/06/02 04:59:23;;;;;;;8.30;4.53;;;;;;;;;;4176049;28;20106;-63
2022/06/02 05:01:24;;;;;;;11.30;5.38;;;;;;;;;;4174182;28;20831;-62
2022/06/02 05:03:28;;;;;;;13.35;5.40;;;;;;;;;;4175582;28;20071;-63
2022/06/02 05:05:48;;;;;;;8.82;5.78;;;;;;;;;;4173088;28;20044;-62
2022/06/02 05:07:49;;;;;;;;;;;;;;;;;;4175908;28;20518;-63
2022/06/02 05:10:09;;;;;;;10.35;5.30;;;;;;;;;;4174202;28;19955;-62
2022/06/02 05:12:19;;;;;;;7.82;4.93;;;;;;;;;;4175623;28;20091;-63
2022/06/02 05:14:36;;;;;;;11.77;5.47;;;;;;;;;;4174309;28;20558;-62
2022/06/02 05:17:02;;;;;;;9.15;5.13;;;;;;;;;;4175807;28;20036;-62
2022/06/02 05:19:04;;;;;;;10.57;5.18;;;;;;;;;;4174344;28;20467;-62
2022/06/02 05:21:18;;;;;;;14.00;6.30;;;;;;;;;;4175423;28;20071;-63
2022/06/02 05:23:42;;;;;;;23.30;6.50;;;;;;;;;;4174066;28;20419;-63
2022/06/02 05:25:50;;;;;;;18.77;6.10;;;;;;;;;;4155292;28;20068;-63
2022/06/02 05:27:54;;;;;;;11.93;5.90;;;;;;;;;;4173776;28;20036;-61
2022/06/02 05:30:09;;;;;;;25.23;7.07;;;;;;;;;;4175672;28;20041;-62
2022/06/02 05:32:30;;;;;;;16.95;6.30;;;;;;;;;;4174018;28;20044;-62
2022/06/02 05:34:50;;;;;;;13.73;6.18;;;;;;;;;;4174879;28;20029;-62
2022/06/02 05:37:04;;;;;;;18.95;6.65;;;;;;;;;;4173864;28;20033;-62
2022/06/02 05:39:21;;;;;;;10.02;6.93;;;;;;;;;;4175293;28;20143;-63
2022/06/02 05:41:25;;;;;;;16.25;6.70;;;;;;;;;;4173560;28;20033;-62
2022/06/02 05:43:36;;;;;;;14.00;6.53;;;;;;;;;;4174404;28;20771;-62
2022/06/02 05:45:38;;;;;;;11.23;5.97;;;;;;;;;;4173801;28;20033;-61
2022/06/02 05:47:47;;;;;;;20.95;6.50;;;;;;;;;;4175060;28;20102;-64
2022/06/02 05:49:58;;;;;;;20.25;6.88;;;;;;;;;;4173997;28;20033;-63
2022/06/02 05:52:02;;;;;;;15.63;6.05;;;;;;;;;;4175011;28;20507;-62
2022/06/02 05:54:36;;;;;;;12.50;5.88;;;;;;;;;;4173438;28;20040;-62
2022/06/02 05:56:40;;;;;;;11.73;6.13;;;;;;;;;;4151802;28;20053;-62
2022/06/02 05:58:54;;;;;;;11.60;5.63;;;;;;;;;;4173083;28;20057;-62
2022/06/02 06:01:25;;;;;;;18.27;5.50;;;;;;;;;;4175057;28;20044;-62
2022/06/02 06:03:41;;;;;;;7.93;5.13;;;;;;;;;;4164801;28;20048;-62
2022/06/02 06:05:45;;;;;;;13.63;6.40;;;;;;;;;;4173629;28;20017;-62
2022/06/02 06:07:57;;;;;;;16.60;5.75;;;;;;;;;;4173789;28;20041;-62
2022/06/02 06:10:04;;;;;;;12.35;5.68;;;;;;;;;;4173003;28;20041;-62
2022/06/02 06:12:24;;;;;;;14.18;5.53;;;;;;;;;;4172738;28;20163;-62
2022/06/02 06:14:25;;;;;;;18.73;6.22;;;;;;;;;;4173476;28;20477;-63
2022/06/02 06:16:45;;;;;;;13.77;5.55;;;;;;;;;;4173720;28;20463;-62
2022/06/02 06:19:00;;;;;;;11.77;5.00;;;;;;;;;;4174082;28;20385;-63
2022/06/02 06:21:01;;;;;;;9.55;4.28;;;;;;;;;;4173870;28;20052;-64
2022/06/02 06:23:06;;;;;;;13.45;5.47;;;;;;;;;;4173562;28;20033;-63
2022/06/02 06:25:14;;;;;;;10.55;5.13;;;;;;;;;;4173662;28;20110;-63
2022/06/02 06:27:31;;;;;;;13.18;4.80;;;;;;;;;;4173579;28;20446;-63
2022/06/02 06:29:32;;;;;;;17.83;4.97;;;;;;;;;;4173390;28;20143;-63
2022/06/02 06:31:43;;;;;;;9.55;4.68;;;;;;;;;;4174143;28;20090;-63
2022/06/02 06:33:51;;;;;;;10.70;4.57;;;;;;;;;;4172826;28;20075;-63
2022/06/02 06:36:02;;;;;;;8.27;4.00;;;;;;;;;;4173705;28;20044;-63
2022/06/02 06:38:20;;;;;;;10.52;4.53;;;;;;;;;;4173028;28;20485;-62
2022/06/02 06:40:39;;;;;;;16.27;5.72;;;;;;;;;;4172046;28;20021;-64
2022/06/02 06:42:52;;;;;;;7.35;4.85;;;;;;;;;;4173757;28;20427;-63
2022/06/02 06:45:15;;;;;;;14.43;4.65;;;;;;;;;;4173727;28;20060;-63
2022/06/02 06:47:35;;;;;;;7.57;5.45;;;;;;;;;;4173705;28;20401;-62
2022/06/02 06:49:52;;;;;;;6.75;4.55;;;;;;;;;;4172316;28;20040;-64
2022/06/02 06:52:12;;;;;;;7.90;4.88;;;;;;;;;;4173909;28;20036;-63
2022/06/02 06:54:13;;;;;;;7.32;5.50;;;;;;;;;;4172357;28;20036;-63
2022/06/02 06:56:22;;;;;;;12.25;6.50;;;;;;;;;;4172029;28;20029;-63
2022/06/02 06:58:26;;;;;;;16.60;9.07;;;;;;;;;;4172485;28;20098;-63
2022/06/02 07:00:28;;;;;;;20.60;9.77;;;;;;;;;;4174082;28;20083;-63
2022/06/02 07:02:48;;;;;;;22.45;9.15;;;;;;;;;;4171991;28;20025;-63
2022/06/02 07:04:49;;;;;;;;;;;;;;;;;;4173764;28;20435;-63
2022/06/02 07:07:02;;;;;;;16.10;7.05;;;;;;;;;;4172628;28;19974;-63
2022/06/02 07:09:30;;;;;;;14.00;6.38;;;;;;;;;;4173532;28;20519;-63
2022/06/02 07:13:57;;;;;;;12.32;7.25;;;;;;;;;;4173173;28;20032;-63
2022/06/02 07:16:11;;;;;;;18.98;10.10;;;;;;;;;;4172096;28;20098;-63
2022/06/02 07:18:25;;;;;;;15.02;9.90;;;;;;;;;;4173170;28;20423;-63
2022/06/02 07:20:31;;;;;;;9.70;6.88;;;;;;;;;;4172043;28;20138;-64
2022/06/02 07:22:42;;;;;;;9.93;6.75;;;;;;;;;;4172739;28;20036;-64
2022/06/02 07:24:43;;;;;;;9.75;7.68;;;;;;;;;;4172152;28;20032;-63
2022/06/02 07:26:47;;;;;;;11.55;7.43;;;;;;;;;;4172896;28;20040;-61
2022/06/02 07:29:12;;;;;;;14.18;6.75;;;;;;;;;;4170400;28;20510;-62
2022/06/02 07:31:39;;;;;;;13.25;7.10;;;;;;;;;;4173043;28;20021;-64
2022/06/02 07:33:59;;;;;;;11.85;7.47;;;;;;;;;;4169600;28;20118;-63
2022/06/02 07:36:12;;;;;;;13.98;8.13;;;;;;;;;;4173871;28;20049;-63
2022/06/02 07:38:26;;;;;;;11.48;6.80;;;;;;;;;;4171962;28;20041;-63
2022/06/02 07:40:46;;;;;;;11.25;6.82;;;;;;;;;;4173239;28;20082;-63
2022/06/02 07:42:48;;;;;;;14.90;8.70;;;;;;;;;;4172259;28;20037;-62
2022/06/02 07:45:12;;;;;;;8.35;6.70;;;;;;;;;;4173173;28;20032;-62
2022/06/02 07:47:24;;;;;;;16.67;8.68;;;;;;;;;;4171877;28;20033;-64
2022/06/02 07:49:41;;;;;;;13.00;6.47;;;;;;;;;;4173022;28;20099;-62
2022/06/02 07:51:42;;;;;;;9.75;6.90;;;;;;;;;;4171988;28;20086;-62
2022/06/02 07:53:47;;;;;;;10.48;7.10;;;;;;;;;;4173172;28;20036;-63
2022/06/02 07:55:59;;;;;;;12.27;7.80;;;;;;;;;;4170838;28;20090;-62
2022/06/02 07:58:06;;;;;;;14.95;8.25;;;;;;;;;;4172674;28;20086;-62
2022/06/02 08:00:14;;;;;;;12.60;6.85;;;;;;;;;;4172803;28;20151;-64
2022/06/02 08:02:21;;;;;;;9.82;6.07;;;;;;;;;;4172809;28;20090;-63
2022/06/02 08:04:25;;;;;;;7.05;6.03;;;;;;;;;;4172082;28;20048;-63
2022/06/02 08:06:45;;;;;;;8.93;6.65;;;;;;;;;;4172985;28;20045;-64
2022/06/02 08:08:58;;;;;;;11.48;6.63;;;;;;;;;;4172229;28;20440;-63
2022/06/02 08:10:59;;;;;;;9.00;6.80;;;;;;;;;;4172961;28;20041;-64
2022/06/02 08:13:08;;;;;;;8.75;5.82;;;;;;;;;;4171044;28;20033;-63
2022/06/02 08:15:22;;;;;;;7.53;6.22;;;;;;;;;;4171925;28;20033;-64
2022/06/02 08:17:29;;;;;;;11.52;6.63;;;;;;;;;;4172151;28;20037;-63
2022/06/02 08:19:40;;;;;;;11.25;6.80;;;;;;;;;;4172842;28;20041;-63
2022/06/02 08:21:46;;;;;;;8.43;6.15;;;;;;;;;;4171737;28;20473;-63
2022/06/02 08:24:07;;;;;;;10.38;6.13;;;;;;;;;;4172963;28;20079;-62
2022/06/02 08:26:11;;;;;;;13.32;6.47;;;;;;;;;;4171815;28;20078;-62
2022/06/02 08:28:21;;;;;;;12.07;6.07;;;;;;;;;;4173437;28;20100;-62
2022/06/02 08:30:26;;;;;;;11.50;5.88;;;;;;;;;;4172053;28;20029;-63
2022/06/02 08:32:28;;;;;;;11.73;5.55;;;;;;;;;;4172674;28;20071;-62
2022/06/02 08:34:29;;;;;;;12.23;5.47;;;;;;;;;;4173867;28;20131;-63
2022/06/02 08:36:34;;;;;;;7.70;5.55;;;;;;;;;;4176073;28;20590;-62
2022/06/02 08:38:36;;;;;;;12.57;6.20;;;;;;;;;;4174606;28;20078;-63
2022/06/02 08:40:40;;;;;;;6.97;5.25;;;;;;;;;;4175668;28;20029;-63
2022/06/02 08:42:54;;;;;;;6.38;4.68;;;;;;;;;;4174030;28;20430;-63
2022/06/02 08:45:21;;;;;;;8.32;4.95;;;;;;;;;;4175912;28;20033;-62
2022/06/02 08:47:37;;;;;;;7.25;4.47;;;;;;;;;;4158797;28;20045;-63
2022/06/02 08:49:39;;;;;;;9.82;5.47;;;;;;;;;;4175923;28;20415;-62
2022/06/02 08:51:59;;;;;;;9.30;5.60;;;;;;;;;;4174884;28;20041;-62
2022/06/02 08:54:09;;;;;;;6.30;4.38;;;;;;;;;;4175866;28;20025;-63
2022/06/02 08:56:10;;;;;;;;;;;;;;;;;;4175045;28;20094;-63
2022/06/02 08:58:21;;;;;;;5.55;3.65;;;;;;;;;;4175441;28;19978;-62
2022/06/02 09:00:22;;;;;;;5.90;4.30;;;;;;;;;;4174536;28;20041;-63
2022/06/02 09:02:42;;;;;;;9.13;4.40;;;;;;;;;;4175275;28;20555;-63
2022/06/02 09:04:49;;;;;;;8.40;3.35;;;;;;;;;;4174119;28;20546;-64
2022/06/02 09:07:12;;;;;;;11.25;3.85;;;;;;;;;;4175822;28;20049;-63
2022/06/02 09:09:33;;;;;;;8.18;3.20;;;;;;;;;;4173912;28;20044;-64
2022/06/02 09:11:37;;;;;;;3.78;2.40;;;;;;;;;;4175383;28;20025;-62
2022/06/02 09:13:57;;;;;;;4.70;2.72;;;;;;;;;;4172660;28;20040;-61
2022/06/02 09:16:17;;;;;;;3.65;2.60;;;;;;;;;;4174881;28;20075;-62
2022/06/02 09:18:19;;;;;;;;;;;;;;;;;;4175285;28;20587;-62
2022/06/02 09:20:29;;;;;;;5.72;2.53;;;;;;;;;;4174086;28;19916;-63
2022/06/02 09:22:35;;;;;;;6.68;3.25;;;;;;;;;;4173744;28;20032;-63
2022/06/02 09:25:12;;;;;;;11.88;3.58;;;;;;;;;;4175118;28;20029;-63
2022/06/02 09:27:32;;;;;;;5.10;2.90;;;;;;;;;;4138277;28;20057;-63
2022/06/02 09:29:59;;;;;;;6.80;2.70;;;;;;;;;;4162909;28;20493;-63
2022/06/02 09:32:04;;;;;;;10.88;3.42;;;;;;;;;;4169586;28;20525;-63
2022/06/02 09:34:24;;;;;;;7.15;3.67;;;;;;;;;;4173894;28;20025;-63
2022/06/02 09:36:45;;;;;;;6.03;2.97;;;;;;;;;;4174789;28;20479;-62
2022/06/02 09:38:54;;;;;;;5.82;3.33;;;;;;;;;;4174036;28;20033;-62
2022/06/02 09:41:13;;;;;;;9.60;4.43;;;;;;;;;;4174902;28;20122;-63
2022/06/02 09:43:31;;;;;;;7.22;3.47;;;;;;;;;;4173271;28;20320;-63
2022/06/02 09:45:35;;;;;;;4.78;2.97;;;;;;;;;;4172821;28;20106;-63
2022/06/02 09:47:43;;;;;;;5.20;3.00;;;;;;;;;;4172729;28;20072;-64
2022/06/02 09:50:03;;;;;;;10.15;3.08;;;;;;;;;;4175118;28;20090;-63
2022/06/02 09:52:22;;;;;;;7.10;2.47;;;;;;;;;;4173572;28;20041;-64
2022/06/02 09:54:42;;;;;;;4.40;2.58;;;;;;;;;;4174940;28;20095;-62
2022/06/02 09:56:44;;;;;;;;;;;;;;;;;;4172803;28;20037;-63
2022/06/02 09:58:53;;;;;;;6.97;2.92;;;;;;;;;;4174511;28;19920;-64
2022/06/02 10:01:14;;;;;;;5.45;2.88;;;;;;;;;;4174249;28;20067;-62
2022/06/02 10:03:28;;;;;;;8.45;4.03;;;;;;;;;;4152675;28;20110;-62
2022/06/02 10:05:33;;;;;;;4.57;3.10;;;;;;;;;;4172998;28;20025;-62
2022/06/02 10:07:40;;;;;;;6.25;2.90;;;;;;;;;;4174327;28;20057;-62
2022/06/02 10:09:41;;;;;;;10.48;3.13;;;;;;;;;;4173119;28;20448;-62
2022/06/02 10:11:49;;;;;;;5.80;2.97;;;;;;;;;;4173402;28;20036;-62
2022/06/02 10:13:51;;;;;;;7.07;2.67;;;;;;;;;;4172673;28;20045;-62
2022/06/02 10:16:12;;;;;;;7.18;3.20;;;;;;;;;;4174593;28;20048;-62
2022/06/02 10:18:13;;;;;;;5.68;2.75;;;;;;;;;;4173298;28;20090;-63
2022/06/02 10:20:22;;;;;;;5.45;2.67;;;;;;;;;;4174226;28;20029;-62
2022/06/02 10:22:51;;;;;;;5.07;2.83;;;;;;;;;;4171364;28;20098;-62
2022/06/02 10:25:21;;;;;;;7.30;3.83;;;;;;;;;;4174103;28;20107;-62
2022/06/02 10:27:23;;;;;;;8.77;3.17;;;;;;;;;;4164073;28;20115;-63
2022/06/02 10:29:46;;;;;;;14.38;8.80;;;;;;;;;;4174295;28;20041;-63
2022/06/02 10:31:47;;;;;;;11.88;6.05;;;;;;;;;;4173285;28;20047;-62
2022/06/02 10:33:51;;;;;;;7.45;3.58;;;;;;;;;;4174077;28;20279;-65
2022/06/02 10:36:11;;;;;;;6.32;2.60;;;;;;;;;;4172960;28;20150;-63
2022/06/02 10:38:13;;;;;;;;;;;;;;;;;;4174421;28;20527;-63
2022/06/02 10:40:23;;;;;;;7.47;2.47;;;;;;;;;;4172650;28;20405;-63
2022/06/02 10:42:25;;;;;;;3.53;2.35;;;;;;;;;;4174054;28;20078;-62
2022/06/02 10:44:47;;;;;;;4.43;2.30;;;;;;;;;;4171136;28;20045;-64
2022/06/02 10:46:51;;;;;;;4.80;2.45;;;;;;;;;;4162671;28;20033;-64
2022/06/02 10:48:59;;;;;;;3.58;2.35;;;;;;;;;;4172769;28;20091;-63
2022/06/02 10:51:01;;;;;;;2.50;2.30;;;;;;;;;;4173410;28;20041;-62
2022/06/02 10:53:20;;;;;;;3.08;2.80;;;;;;;;;;4172913;28;20029;-63
2022/06/02 10:55:22;;;;;;;3.80;2.13;;;;;;;;;;4173539;28;20362;-62
2022/06/02 10:57:35;;;;;;;7.63;2.65;;;;;;;;;;4172352;28;20033;-62
2022/06/02 10:59:57;;;;;;;6.68;2.25;;;;;;;;;;4173464;28;20102;-63
2022/06/02 11:02:28;;;;;;;5.18;2.88;;;;;;;;;;4150681;28;20060;-63
2022/06/02 11:04:48;;;;;;;5.95;2.38;;;;;;;;;;4173334;28;20033;-63
2022/06/02 11:06:49;;;;;;;;;;;;;;;;;;4172508;28;20090;-63
2022/06/02 11:09:10;;;;;;;5.28;2.13;;;;;;;;;;4173929;28;19983;-62
2022/06/02 11:11:20;;;;;;;4.32;2.33;;;;;;;;;;4172244;28;20593;-63
2022/06/02 11:13:21;;;;;;;2.72;1.80;;;;;;;;;;4173480;28;20110;-63
2022/06/02 11:15:41;;;;;;;4.93;2.40;;;;;;;;;;4172281;28;20083;-63
2022/06/02 11:17:42;;;;;;;7.07;1.80;;;;;;;;;;4173767;28;20032;-63
2022/06/02 11:20:03;;;;;;;4.10;1.92;;;;;;;;;;4172056;28;20626;-63
2022/06/02 11:22:23;;;;;;;9.68;2.35;;;;;;;;;;4173147;28;20041;-62
2022/06/02 11:24:24;;;;;;;;;;;;;;;;;;4173358;28;20146;-62
2022/06/02 11:26:49;;;;;;;3.88;2.20;;;;;;;;;;4173390;28;19924;-62
2022/06/02 11:28:57;;;;;;;5.88;2.83;;;;;;;;;;4171925;28;20087;-63
2022/06/02 11:30:58;;;;;;;6.35;2.70;;;;;;;;;;4173145;28;20032;-63
2022/06/02 11:33:02;;;;;;;4.53;2.50;;;;;;;;;;4172240;28;20625;-61
2022/06/02 11:35:11;;;;;;;5.68;2.85;;;;;;;;;;4173268;28;20083;-63
2022/06/02 11:37:15;;;;;;;3.72;2.65;;;;;;;;;;4171999;28;20025;-63
2022/06/02 11:39:35;;;;;;;4.60;2.63;;;;;;;;;;4172891;28;20488;-63
2022/06/02 11:41:39;;;;;;;12.32;3.25;;;;;;;;;;4171715;28;20052;-66
2022/06/02 11:43:41;;;;;;;4.32;3.00;;;;;;;;;;4172501;28;20130;-62
2022/06/02 11:45:52;;;;;;;7.75;3.45;;;;;;;;;;4171783;28;20041;-62
2022/06/02 11:47:53;;;;;;;5.53;2.75;;;;;;;;;;4172736;28;20094;-62
2022/06/02 11:49:55;;;;;;;7.43;2.58;;;;;;;;;;4171694;28;20063;-62
2022/06/02 11:51:56;;;;;;;13.38;2.70;;;;;;;;;;4171403;28;20044;-63
2022/06/02 11:54:03;;;;;;;9.25;2.65;;;;;;;;;;4171316;28;20021;-63
2022/06/02 11:56:19;;;;;;;7.60;2.90;;;;;;;;;;4173221;28;20033;-62
2022/06/02 11:58:21;;;;;;;3.78;2.20;;;;;;;;;;4171995;28;20045;-63
2022/06/02 12:00:28;;;;;;;6.68;2.50;;;;;;;;;;4173118;28;20584;-63
2022/06/02 12:02:48;;;;;;;6.65;1.98;;;;;;;;;;4172179;28;20570;-63
2022/06/02 12:04:49;;;;;;;9.13;2.10;;;;;;;;;;4173595;28;20106;-62
2022/06/02 12:06:57;;;;;;;3.58;2.47;;;;;;;;;;4171869;28;20032;-63
2022/06/02 12:09:01;;;;;;;8.40;2.75;;;;;;;;;;4175438;28;20040;-63
2022/06/02 12:11:22;;;;;;;5.00;2.45;;;;;;;;;;4175084;28;20045;-63
2022/06/02 12:13:30;;;;;;;3.90;2.67;;;;;;;;;;4175939;28;20063;-63
2022/06/02 12:15:31;;;;;;;8.63;3.13;;;;;;;;;;4174663;28;20033;-63
2022/06/02 12:17:45;;;;;;;7.57;2.85;;;;;;;;;;4176062;28;20040;-62
2022/06/02 12:19:49;;;;;;;7.63;3.30;;;;;;;;;;4175560;28;20519;-63
2022/06/02 12:21:50;;;;;;;12.30;3.90;;;;;;;;;;4175957;28;20045;-63
2022/06/02 12:24:00;;;;;;;6.65;3.90;;;;;;;;;;4174653;28;20059;-64
2022/06/02 12:26:02;;;;;;;;;;;;;;;;;;4176503;28;20082;-63
2022/06/02 12:28:22;;;;;;;8.05;4.53;;;;;;;;;;4174708;28;19920;-63
2022/06/02 12:30:38;;;;;;;11.13;4.35;;;;;;;;;;4176662;28;20029;-63
2022/06/02 12:32:59;;;;;;;7.95;3.88;;;;;;;;;;4175194;28;20136;-62
2022/06/02 12:35:00;;;;;;;;;;;;;;;;;;4176068;28;20029;-62
2022/06/02 12:37:07;;;;;;;4.13;2.42;;;;;;;;;;4175072;28;19909;-62
2022/06/02 12:39:29;;;;;;;6.18;2.80;;;;;;;;;;4176120;28;20025;-62
2022/06/02 12:41:30;;;;;;;5.68;1.88;;;;;;;;;;4153804;28;20032;-63
2022/06/02 12:43:44;;;;;;;3.45;1.55;;;;;;;;;;4175827;28;20029;-62
2022/06/02 12:45:52;;;;;;;2.88;1.42;;;;;;;;;;4174722;28;20063;-62
2022/06/02 12:48:05;;;;;;;4.40;2.17;;;;;;;;;;4176097;28;20056;-62
2022/06/02 12:50:27;;;;;;;2.20;1.48;;;;;;;;;;4174727;28;20032;-62
2022/06/02 12:52:47;;;;;;;4.38;2.78;;;;;;;;;;4175743;28;20064;-62
2022/06/02 12:54:57;;;;;;;5.03;1.83;;;;;;;;;;4174839;28;20041;-62
2022/06/02 12:57:08;;;;;;;3.22;1.83;;;;;;;;;;4176057;28;20427;-63